Time;durP1;ratioP1;P1;durP2;ratioP2;P2;SDS_P1;SDS_P2;PMS_P1;PMS_P2;Temp;Humidity;BMP_temperature;BMP_pressure;BME280_temperature;BME280_humidity;BME280_pressure;Samples;Min_cycle;Max_cycle;Signal;HPM_P1;HPM_P2
2022/04/17 00:01:43;;;;;;;0.30;0.30;;;;;;;-140.72;100.00;52681.03;5090565;28;20058;-70
2022/04/17 00:04:10;;;;;;;0.43;0.40;;;;;;;-140.72;100.00;52662.78;5050517;28;20019;-70
2022/04/17 00:06:37;;;;;;;0.85;0.65;;;;;;;-140.72;100.00;52642.47;5022939;28;20041;-71
2022/04/17 00:09:02;;;;;;;1.90;0.63;;;;;;;-140.72;100.00;52646.53;5036806;28;20025;-70
2022/04/17 00:11:28;;;;;;;0.70;0.70;;;;;;;-140.72;100.00;52687.13;5036460;28;20511;-70
2022/04/17 00:13:54;;;;;;;1.20;0.75;;;;;;;-140.72;100.00;52666.84;5077883;28;20518;-71
2022/04/17 00:16:20;;;;;;;0.60;0.60;;;;;;;-140.72;100.00;52648.56;5050204;28;20116;-72
2022/04/17 00:18:45;;;;;;;0.52;0.45;;;;;;;-140.72;100.00;52650.59;5022494;28;20176;-71
2022/04/17 00:21:11;;;;;;;1.27;0.75;;;;;;;-140.72;100.00;52683.06;5063624;28;20406;-70
2022/04/17 00:23:36;;;;;;;0.55;0.50;;;;;;;-140.72;100.00;52658.72;5067132;28;20030;-72
2022/04/17 00:26:02;;;;;;;1.77;1.45;;;;;;;-140.72;100.00;52650.59;5008807;28;20455;-70
2022/04/17 00:28:27;;;;;;;0.50;0.45;;;;;;;-140.72;100.00;52644.50;5008495;28;20030;-70
2022/04/17 00:30:54;;;;;;;0.30;0.30;;;;;;;-140.72;100.00;52648.56;5009026;28;20030;-70
2022/04/17 00:33:19;;;;;;;0.73;0.60;;;;;;;-140.72;100.00;52707.41;5008349;28;20528;-70
2022/04/17 00:35:45;;;;;;;2.05;1.13;;;;;;;-140.72;100.00;52652.63;5008558;28;20029;-70
2022/04/17 00:38:11;;;;;;;0.50;0.50;;;;;;;-140.72;100.00;52674.94;5008652;28;20497;-72
2022/04/17 00:40:36;;;;;;;0.40;0.38;;;;;;;-140.72;100.00;52695.25;5008655;28;20022;-70
2022/04/17 00:43:02;;;;;;;0.20;0.20;;;;;;;-140.72;100.00;52648.56;5008431;28;20045;-70
2022/04/17 00:45:27;;;;;;;0.30;0.30;;;;;;;-140.72;100.00;52683.06;5008609;28;20080;-71
2022/04/17 00:47:53;;;;;;;0.20;0.20;;;;;;;-140.72;100.00;52636.38;5007809;28;20428;-70
2022/04/17 00:50:19;;;;;;;1.00;0.35;;;;;;;-140.72;100.00;52654.66;5008511;28;20535;-70
2022/04/17 00:52:45;;;;;;;0.90;0.40;;;;;;;-140.72;100.00;52683.06;5008259;28;20034;-70
2022/04/17 00:55:12;;;;;;;0.75;0.70;;;;;;;-140.72;100.00;52670.88;5008252;28;20065;-71
2022/04/17 00:57:37;;;;;;;1.80;0.85;;;;;;;-140.72;100.00;52658.72;5008274;28;20026;-70
2022/04/17 01:00:05;;;;;;;0.82;0.82;;;;;;;-140.72;100.00;52662.78;5007676;28;20042;-70
2022/04/17 01:02:31;;;;;;;0.90;0.90;;;;;;;-140.72;100.00;52658.72;5007910;28;20034;-71
2022/04/17 01:04:56;;;;;;;0.73;0.60;;;;;;;-140.72;100.00;52658.72;5008213;28;20364;-70
2022/04/17 01:07:23;;;;;;;1.08;0.80;;;;;;;-140.72;100.00;52683.06;5008053;28;20067;-69
2022/04/17 01:09:50;;;;;;;0.93;0.63;;;;;;;-140.72;100.00;52674.94;5008057;28;20034;-72
2022/04/17 01:12:17;;;;;;;0.75;0.75;;;;;;;-140.72;100.00;52697.28;5008215;28;20042;-70
2022/04/17 01:14:43;;;;;;;0.50;0.50;;;;;;;-140.72;100.00;52699.31;5008207;28;20054;-71
2022/04/17 01:17:10;;;;;;;0.30;0.30;;;;;;;-140.72;100.00;52695.25;5008105;28;20034;-70
2022/04/17 01:19:37;;;;;;;0.90;0.90;;;;;;;-140.72;100.00;52699.31;5005101;28;20115;-71
2022/04/17 01:22:08;;;;;;;0.95;0.63;;;;;;;-140.72;100.00;52660.75;4988400;28;20053;-71
2022/04/17 01:27:19;;;;;;;0.50;0.47;;;;;;;-140.72;100.00;52674.94;4988559;28;20053;-70
2022/04/17 01:29:47;;;;;;;1.60;1.27;;;;;;;-140.72;100.00;52662.78;5003158;28;20031;-71
2022/04/17 01:32:12;;;;;;;1.10;0.93;;;;;;;-140.72;100.00;52620.16;4988388;28;20026;-70
2022/04/17 01:34:38;;;;;;;0.63;0.63;;;;;;;-140.72;100.00;52687.13;4988209;28;20506;-69
2022/04/17 01:37:04;;;;;;;1.75;1.27;;;;;;;-140.72;100.00;52656.69;4988565;28;20053;-69
2022/04/17 01:39:31;;;;;;;1.35;1.25;;;;;;;-140.72;100.00;52691.19;4987959;28;20035;-69
2022/04/17 01:41:58;;;;;;;1.27;1.00;;;;;;;-140.72;100.00;52658.72;4988080;28;20022;-71
2022/04/17 01:44:25;;;;;;;6.10;0.93;;;;;;;-140.72;100.00;52628.28;4988156;28;20472;-71
2022/04/17 01:46:51;;;;;;;1.00;0.93;;;;;;;-140.72;100.00;52691.19;5000525;28;20053;-70
2022/04/17 01:49:18;;;;;;;1.40;1.10;;;;;;;-140.72;100.00;52691.19;5007664;28;20037;-71
2022/04/17 01:51:46;;;;;;;0.45;0.40;;;;;;;-140.72;100.00;52687.13;5007577;28;20037;-70
2022/04/17 01:54:25;;;;;;;0.73;0.40;;;;;;;-140.72;100.00;52683.06;5071930;28;20500;-70
2022/04/17 01:56:51;;;;;;;0.98;0.80;;;;;;;-140.72;100.00;52683.06;5110247;28;20038;-70
2022/04/17 01:59:17;;;;;;;1.48;0.75;;;;;;;-140.72;100.00;52687.13;5110821;28;20078;-70
2022/04/17 02:01:44;;;;;;;1.00;0.85;;;;;;;-140.72;100.00;52687.13;5114873;28;20129;-69
2022/04/17 02:04:11;;;;;;;1.10;1.00;;;;;;;-140.72;100.00;52670.88;5037730;28;20415;-69
2022/04/17 02:06:40;;;;;;;0.60;0.60;;;;;;;-140.72;100.00;52701.31;5010670;28;20101;-69
2022/04/17 02:09:09;;;;;;;0.97;0.73;;;;;;;-140.72;100.00;52674.94;5010750;28;20076;-69
2022/04/17 02:11:35;;;;;;;;;;;;;;;-140.72;100.00;52662.78;5010923;28;20479;-71
2022/04/17 02:14:01;;;;;;;0.68;0.60;;;;;;;-140.72;100.00;52683.06;5010228;28;19937;-69
2022/04/17 02:16:26;;;;;;;0.40;0.40;;;;;;;-140.72;100.00;52691.19;5010865;28;20030;-71
2022/04/17 02:18:52;;;;;;;1.13;0.82;;;;;;;-140.72;100.00;52660.75;5010543;28;20026;-69
2022/04/17 02:21:19;;;;;;;0.93;0.40;;;;;;;-140.72;100.00;52689.16;5010600;28;20391;-70
2022/04/17 02:23:45;;;;;;;1.13;0.68;;;;;;;-140.72;100.00;52725.69;5010349;28;20105;-70
2022/04/17 02:26:12;;;;;;;2.75;1.40;;;;;;;-140.72;100.00;52664.81;5010813;28;20037;-70
2022/04/17 02:28:40;;;;;;;0.52;0.52;;;;;;;-140.72;100.00;52652.63;5010385;28;20030;-70
2022/04/17 02:31:06;;;;;;;1.10;0.85;;;;;;;-140.72;100.00;52703.34;5010157;28;20560;-71
2022/04/17 02:33:33;;;;;;;1.60;1.00;;;;;;;-140.72;100.00;52707.41;5003160;28;20035;-70
2022/04/17 02:35:59;;;;;;;1.45;0.80;;;;;;;-140.72;100.00;52705.38;5000266;28;20063;-70
2022/04/17 02:38:25;;;;;;;0.65;0.50;;;;;;;-140.72;100.00;52739.88;4990301;28;20027;-71
2022/04/17 02:40:51;;;;;;;0.60;0.60;;;;;;;-140.72;100.00;52691.19;4990913;28;20054;-70
2022/04/17 02:43:17;;;;;;;1.45;1.35;;;;;;;-140.72;100.00;52705.38;5006620;28;20026;-70
2022/04/17 02:45:43;;;;;;;2.30;0.60;;;;;;;-140.72;100.00;52707.41;5009682;28;20507;-70
2022/04/17 02:48:08;;;;;;;0.50;0.50;;;;;;;-140.72;100.00;52676.97;5009940;28;20421;-72
2022/04/17 02:50:33;;;;;;;2.60;1.10;;;;;;;-140.72;100.00;52689.16;5008829;28;20090;-70
2022/04/17 02:52:59;;;;;;;3.15;1.05;;;;;;;-140.72;100.00;52699.31;5009791;28;20037;-70
2022/04/17 02:55:24;;;;;;;1.17;1.02;;;;;;;-140.72;100.00;52666.84;5010033;28;20056;-72
2022/04/17 02:57:50;;;;;;;0.88;0.65;;;;;;;-140.72;100.00;52660.75;5009944;28;20026;-70
2022/04/17 03:00:16;;;;;;;1.48;0.88;;;;;;;-140.72;100.00;52719.59;5009667;28;20050;-70
2022/04/17 03:05:38;;;;;;;1.20;1.00;;;;;;;-140.72;100.00;52658.72;5010025;28;20540;-72
2022/04/17 03:08:15;;;;;;;1.02;0.93;;;;;;;-140.72;100.00;52709.44;5009011;28;20083;-70
2022/04/17 03:10:47;;;;;;;2.13;1.33;;;;;;;-140.72;100.00;52715.53;5009231;28;20034;-71
2022/04/17 03:13:13;;;;;;;0.63;0.57;;;;;;;-140.72;100.00;52689.16;5009951;28;20044;-72
2022/04/17 03:15:39;;;;;;;0.40;0.40;;;;;;;-140.72;100.00;52723.66;5009390;28;20026;-70
2022/04/17 03:18:06;;;;;;;2.13;1.33;;;;;;;-140.72;100.00;52691.19;5009102;28;20026;-70
2022/04/17 03:20:31;;;;;;;0.95;0.82;;;;;;;-140.72;100.00;52695.25;5009993;28;20040;-70
2022/04/17 03:22:57;;;;;;;0.65;0.60;;;;;;;-140.72;100.00;52654.66;5010047;28;20437;-71
2022/04/17 03:25:22;;;;;;;0.50;0.50;;;;;;;-140.72;100.00;52693.22;5009948;28;20083;-70
2022/04/17 03:27:48;;;;;;;2.75;1.30;;;;;;;-140.72;100.00;52683.06;5010256;28;20030;-70
2022/04/17 03:30:15;;;;;;;0.80;0.77;;;;;;;-140.72;100.00;52681.03;5009674;28;20478;-71
2022/04/17 03:32:42;;;;;;;0.75;0.75;;;;;;;-140.72;100.00;52691.19;5009599;28;20022;-70
2022/04/17 03:35:08;;;;;;;3.58;1.90;;;;;;;-140.72;100.00;52681.03;5009508;28;20506;-70
2022/04/17 03:37:33;;;;;;;1.65;0.60;;;;;;;-140.72;100.00;52703.34;5009501;28;20458;-71
2022/04/17 03:39:59;;;;;;;1.08;0.90;;;;;;;-140.72;100.00;52691.19;5009481;28;20026;-71
2022/04/17 03:42:24;;;;;;;1.42;1.25;;;;;;;-140.72;100.00;52685.09;5008919;28;20030;-71
2022/04/17 03:44:50;;;;;;;2.78;1.15;;;;;;;-140.72;100.00;52717.56;5009170;28;20112;-70
2022/04/17 03:47:15;;;;;;;1.88;1.42;;;;;;;-140.72;100.00;52727.72;5009021;28;20565;-70
2022/04/17 03:49:41;;;;;;;2.47;1.08;;;;;;;-140.72;100.00;52687.13;5009244;28;20026;-70
2022/04/17 03:52:06;;;;;;;1.52;1.23;;;;;;;-140.72;100.00;52739.88;5008961;28;20151;-70
2022/04/17 03:54:32;;;;;;;1.42;0.98;;;;;;;-140.72;100.00;52695.25;5008911;28;20062;-70
2022/04/17 03:56:57;;;;;;;0.73;0.63;;;;;;;-140.72;100.00;52713.50;5009226;28;20119;-70
2022/04/17 03:59:22;;;;;;;1.67;1.58;;;;;;;-140.72;100.00;52713.50;5009014;28;20042;-72
2022/04/17 04:01:48;;;;;;;1.40;0.75;;;;;;;-140.72;100.00;52703.34;5009203;28;20026;-70
2022/04/17 04:04:15;;;;;;;1.02;1.02;;;;;;;-140.72;100.00;52705.38;5009312;28;20109;-70
2022/04/17 04:06:43;;;;;;;0.52;0.50;;;;;;;-140.72;100.00;52707.41;5008696;28;20387;-70
2022/04/17 04:09:09;;;;;;;0.63;0.60;;;;;;;-140.72;100.00;52719.59;5008915;28;20399;-70
2022/04/17 04:11:34;;;;;;;1.23;1.15;;;;;;;-140.72;100.00;52729.75;4991051;28;20037;-70
2022/04/17 04:13:59;;;;;;;2.05;1.15;;;;;;;-140.72;100.00;52711.47;5008557;28;20505;-70
2022/04/17 04:16:25;;;;;;;0.93;0.70;;;;;;;-140.72;100.00;52683.06;5008812;28;20049;-72
2022/04/17 04:18:50;;;;;;;1.98;1.25;;;;;;;-140.72;100.00;52711.47;5008867;28;20033;-71
2022/04/17 04:21:16;;;;;;;0.73;0.73;;;;;;;-140.72;100.00;52748.00;5008420;28;20117;-71
2022/04/17 04:23:41;;;;;;;0.40;0.32;;;;;;;-140.72;100.00;52721.63;5007669;28;20045;-70
2022/04/17 04:26:07;;;;;;;0.82;0.68;;;;;;;-140.72;100.00;52707.41;5008337;28;20120;-70
2022/04/17 04:28:38;;;;;;;0.80;0.80;;;;;;;-140.72;100.00;52687.13;5007780;28;20029;-71
2022/04/17 04:31:12;;;;;;;1.65;1.25;;;;;;;-140.72;100.00;52727.72;5008850;28;20029;-70
2022/04/17 04:33:40;;;;;;;1.25;1.10;;;;;;;-140.72;100.00;52725.69;5008396;28;20826;-70
2022/04/17 04:36:07;;;;;;;1.55;1.40;;;;;;;-140.72;100.00;52707.41;5008294;28;20033;-70
2022/04/17 04:38:33;;;;;;;1.63;1.25;;;;;;;-140.72;100.00;52674.94;5008310;28;20156;-71
2022/04/17 04:40:59;;;;;;;1.52;1.13;;;;;;;-140.72;100.00;52658.72;5008146;28;20025;-70
2022/04/17 04:43:25;;;;;;;1.17;0.95;;;;;;;-140.72;100.00;52741.91;4988859;28;20033;-70
2022/04/17 04:46:06;;;;;;;2.30;0.85;;;;;;;-140.72;100.00;52683.06;4989354;28;20038;-71
2022/04/17 04:51:27;;;;;;;0.70;0.70;;;;;;;-140.72;100.00;52729.75;4989006;28;20045;-71
2022/04/17 04:53:54;;;;;;;1.67;1.17;;;;;;;-140.72;100.00;52709.44;4988637;28;20031;-71
2022/04/17 04:56:20;;;;;;;0.90;0.75;;;;;;;-140.72;100.00;52691.19;4989032;28;20044;-71
2022/04/17 04:58:46;;;;;;;1.08;0.98;;;;;;;-140.72;100.00;52691.19;5014081;28;20509;-71
2022/04/17 05:01:12;;;;;;;1.63;1.52;;;;;;;-140.72;100.00;52719.59;5091227;28;20126;-71
2022/04/17 05:03:38;;;;;;;0.70;0.70;;;;;;;-140.72;100.00;52729.75;5090816;28;20107;-70
2022/04/17 05:06:03;;;;;;;0.77;0.50;;;;;;;-140.72;100.00;52723.66;5090830;28;20066;-69
2022/04/17 05:08:29;;;;;;;1.27;1.17;;;;;;;-140.72;100.00;52721.63;5089324;28;20043;-70
2022/04/17 05:10:55;;;;;;;0.80;0.80;;;;;;;-140.72;100.00;52731.75;5090531;28;20035;-70
2022/04/17 05:13:20;;;;;;;0.93;0.80;;;;;;;-140.72;100.00;52715.53;5090850;28;20040;-69
2022/04/17 05:15:47;;;;;;;2.65;1.85;;;;;;;-140.72;100.00;52691.19;5090715;28;20446;-69
2022/04/17 05:18:12;;;;;;;0.40;0.40;;;;;;;-140.72;100.00;52695.25;5089167;28;20115;-70
2022/04/17 05:20:38;;;;;;;1.10;1.00;;;;;;;-140.72;100.00;52707.41;5086295;28;20138;-69
2022/04/17 05:23:25;;;;;;;1.00;0.77;;;;;;;-140.72;100.00;52687.13;5078209;28;20056;-69
2022/04/17 05:26:01;;;;;;;1.27;1.05;;;;;;;-140.72;100.00;52715.53;5075536;28;20473;-70
2022/04/17 05:28:30;;;;;;;0.73;0.73;;;;;;;-140.72;100.00;52703.34;5077510;28;20032;-70
2022/04/17 05:30:58;;;;;;;1.05;0.75;;;;;;;-140.72;100.00;52687.13;5059478;28;20171;-70
2022/04/17 05:33:24;;;;;;;1.38;0.77;;;;;;;-140.72;100.00;52685.09;5081589;28;20028;-70
2022/04/17 05:35:51;;;;;;;0.40;0.40;;;;;;;-140.72;100.00;52719.59;5065991;28;20111;-70
2022/04/17 05:38:16;;;;;;;1.42;1.08;;;;;;;-140.72;100.00;52705.38;5058763;28;20041;-69
2022/04/17 05:40:45;;;;;;;1.10;0.80;;;;;;;-140.72;100.00;52697.28;5055545;28;20032;-70
2022/04/17 05:43:11;;;;;;;1.30;1.20;;;;;;;-140.72;100.00;52735.81;5073473;28;20088;-70
2022/04/17 05:45:37;;;;;;;0.93;0.88;;;;;;;-140.72;100.00;52679.00;5094805;28;20054;-69
2022/04/17 05:48:09;;;;;;;0.93;0.82;;;;;;;-140.72;100.00;52699.31;5078934;28;20024;-70
2022/04/17 05:50:36;;;;;;;1.02;0.90;;;;;;;-140.72;100.00;52685.09;5049681;28;20084;-69
2022/04/17 05:53:02;;;;;;;1.55;0.98;;;;;;;-140.72;100.00;52707.41;5068385;28;20083;-70
2022/04/17 05:55:27;;;;;;;0.98;0.50;;;;;;;-140.72;100.00;52719.59;5039412;28;20488;-70
2022/04/17 05:57:53;;;;;;;1.73;1.52;;;;;;;-140.72;100.00;52691.19;5060875;28;20059;-70
2022/04/17 06:00:19;;;;;;;0.93;0.82;;;;;;;-140.72;100.00;52689.16;5086320;28;20482;-71
2022/04/17 06:02:46;;;;;;;1.20;1.00;;;;;;;-140.72;100.00;52691.19;5087987;28;20038;-70
2022/04/17 06:05:14;;;;;;;1.20;0.70;;;;;;;-140.72;100.00;52681.03;5083052;28;20375;-70
2022/04/17 06:07:40;;;;;;;0.90;0.50;;;;;;;-140.72;100.00;52676.97;5082413;28;20024;-70
2022/04/17 06:10:07;;;;;;;1.65;1.30;;;;;;;-140.72;100.00;52670.88;5073907;28;20131;-70
2022/04/17 06:12:34;;;;;;;2.25;0.90;;;;;;;-140.72;100.00;52693.22;5073684;28;20546;-72
2022/04/17 06:14:59;;;;;;;5.75;1.50;;;;;;;-140.72;100.00;52681.03;5079798;28;20035;-70
2022/04/17 06:17:25;;;;;;;0.98;0.88;;;;;;;-140.72;100.00;52650.59;5074198;28;20024;-70
2022/04/17 06:19:50;;;;;;;1.50;1.40;;;;;;;-140.72;100.00;52687.13;5074781;28;20032;-70
2022/04/17 06:22:17;;;;;;;5.18;1.05;;;;;;;-140.72;100.00;52620.16;5074962;28;20036;-70
2022/04/17 06:24:43;;;;;;;1.10;1.02;;;;;;;-140.72;100.00;52683.06;5072940;28;20060;-70
2022/04/17 06:27:08;;;;;;;0.68;0.52;;;;;;;-140.72;100.00;52650.59;5074454;28;20154;-71
2022/04/17 06:29:35;;;;;;;1.10;0.90;;;;;;;-140.72;100.00;52638.41;5087239;28;20117;-71
2022/04/17 06:32:00;;;;;;;1.23;0.95;;;;;;;-140.72;100.00;52632.34;5088320;28;20054;-72
2022/04/17 06:34:25;;;;;;;1.23;0.63;;;;;;;-140.72;100.00;52654.66;5092718;28;20028;-71
2022/04/17 06:36:51;;;;;;;2.28;1.45;;;;;;;-140.72;100.00;52656.69;5087025;28;20032;-70
2022/04/17 06:39:16;;;;;;;1.58;0.90;;;;;;;-140.72;100.00;52638.41;5092881;28;20402;-70
2022/04/17 06:41:41;;;;;;;0.75;0.75;;;;;;;-140.72;100.00;52646.53;5090414;28;20028;-71
2022/04/17 06:44:07;;;;;;;2.88;0.77;;;;;;;-140.72;100.00;52632.34;5092276;28;20115;-70
2022/04/17 06:46:32;;;;;;;2.08;0.98;;;;;;;-140.72;100.00;52666.84;5090268;28;20047;-70
2022/04/17 06:48:58;;;;;;;1.90;0.85;;;;;;;-140.72;100.00;52662.78;5077603;28;20386;-69
2022/04/17 06:51:26;;;;;;;1.20;0.90;;;;;;;-140.72;100.00;52652.63;5086788;28;20119;-72
2022/04/17 06:53:54;;;;;;;1.33;1.08;;;;;;;-140.72;100.00;52593.78;5089032;28;20028;-70
2022/04/17 06:56:20;;;;;;;1.08;0.68;;;;;;;-140.72;100.00;52624.22;5087310;28;20039;-70
2022/04/17 06:58:46;;;;;;;1.00;0.88;;;;;;;-140.72;100.00;52681.03;5052911;28;20050;-69
2022/04/17 07:01:14;;;;;;;2.20;1.35;;;;;;;-140.72;100.00;52603.94;5003045;28;20483;-71
2022/04/17 07:03:40;;;;;;;1.63;0.80;;;;;;;-140.72;100.00;52610.00;5002801;28;20601;-69
2022/04/17 07:06:05;;;;;;;1.33;0.95;;;;;;;-140.72;100.00;52672.91;4994338;28;20117;-70
2022/04/17 07:08:31;;;;;;;1.17;0.90;;;;;;;-140.72;100.00;52610.00;4996103;28;20034;-69
2022/04/17 07:10:56;;;;;;;1.70;0.90;;;;;;;-140.72;100.00;52630.31;5009720;28;20041;-70
2022/04/17 07:13:23;;;;;;;1.15;0.98;;;;;;;-140.72;100.00;52610.00;4996538;28;20106;-70
2022/04/17 07:15:49;;;;;;;0.82;0.63;;;;;;;-140.72;100.00;52610.00;5009864;28;20087;-70
2022/04/17 07:18:14;;;;;;;1.33;1.17;;;;;;;-140.72;100.00;52616.09;5009397;28;20034;-71
2022/04/17 07:20:40;;;;;;;1.02;0.75;;;;;;;-140.72;100.00;52618.13;5002039;28;20045;-70
2022/04/17 07:23:06;;;;;;;0.77;0.55;;;;;;;-140.72;100.00;52581.59;5023792;28;20036;-70
2022/04/17 07:25:32;;;;;;;1.25;0.90;;;;;;;-140.72;100.00;52585.66;5018387;28;20034;-70
2022/04/17 07:27:57;;;;;;;2.58;0.85;;;;;;;-140.72;100.00;52618.13;5059133;28;20034;-70
2022/04/17 07:30:26;;;;;;;0.70;0.40;;;;;;;-140.72;100.00;52610.00;5004445;28;20073;-71
2022/04/17 07:32:54;;;;;;;1.03;0.97;;;;;;;-140.72;100.00;52630.31;5029653;28;20107;-70
2022/04/17 07:35:21;;;;;;;0.93;0.65;;;;;;;-140.72;100.00;52581.59;5062447;28;20056;-70
2022/04/17 07:37:57;;;;;;;1.45;1.35;;;;;;;-140.72;100.00;52585.66;5037041;28;20051;-70
2022/04/17 07:40:26;;;;;;;0.68;0.50;;;;;;;-140.72;100.00;52587.69;5010976;28;20475;-71
2022/04/17 07:42:53;;;;;;;0.80;0.50;;;;;;;-140.72;100.00;52589.72;5038282;28;20056;-70
2022/04/17 07:45:20;;;;;;;2.10;0.90;;;;;;;-140.72;100.00;52557.25;5043506;28;20034;-70
2022/04/17 07:47:47;;;;;;;0.77;0.75;;;;;;;-140.72;100.00;52573.50;4992586;28;20038;-70
2022/04/17 07:50:16;;;;;;;0.82;0.55;;;;;;;-140.72;100.00;52585.66;4997673;28;20030;-71
2022/04/17 07:52:42;;;;;;;1.40;0.67;;;;;;;-140.72;100.00;52589.72;5043396;28;20064;-71
2022/04/17 07:55:11;;;;;;;0.60;0.60;;;;;;;-140.72;100.00;52595.81;4996969;28;20063;-69
2022/04/17 08:00:22;;;;;;;3.08;1.17;;;;;;;-140.72;100.00;52555.22;5053736;28;20544;-70
2022/04/17 08:05:44;;;;;;;2.47;0.82;;;;;;;-140.72;100.00;52567.41;5014758;28;20046;-69
2022/04/17 08:08:10;;;;;;;0.82;0.60;;;;;;;-140.72;100.00;52618.13;5006400;28;20053;-69
2022/04/17 08:10:36;;;;;;;0.95;0.47;;;;;;;-140.72;100.00;52581.59;5008033;28;20066;-69
2022/04/17 08:13:02;;;;;;;1.88;1.17;;;;;;;-140.72;100.00;52571.47;5009119;28;20313;-70
2022/04/17 08:15:27;;;;;;;1.80;1.15;;;;;;;-140.72;100.00;52561.31;5008276;28;20040;-71
2022/04/17 08:17:53;;;;;;;0.50;0.50;;;;;;;-140.72;100.00;52557.25;5007276;28;20540;-72
2022/04/17 08:20:18;;;;;;;3.00;0.93;;;;;;;-140.72;100.00;52543.03;5008411;28;20022;-70
2022/04/17 08:22:44;;;;;;;0.20;0.20;;;;;;;-140.72;100.00;52528.84;5015692;28;20026;-71
2022/04/17 08:25:09;;;;;;;2.60;0.95;;;;;;;-140.72;100.00;52530.88;5065711;28;20031;-69
2022/04/17 08:27:47;;;;;;;1.42;1.08;;;;;;;-140.72;100.00;52510.59;5016981;28;20058;-70
2022/04/17 08:30:13;;;;;;;1.20;1.05;;;;;;;-140.72;100.00;52514.63;5005407;28;20022;-72
2022/04/17 08:32:38;;;;;;;1.48;1.13;;;;;;;-140.72;100.00;52484.19;5000430;28;20123;-69
2022/04/17 08:35:06;;;;;;;1.10;1.02;;;;;;;-140.72;100.00;52557.25;5015933;28;20042;-71
2022/04/17 08:37:31;;;;;;;0.60;0.50;;;;;;;-140.72;100.00;52482.16;5016994;28;20034;-70
2022/04/17 08:39:56;;;;;;;1.95;0.55;;;;;;;-140.72;100.00;52498.41;5030795;28;20096;-69
2022/04/17 08:42:23;;;;;;;1.63;0.90;;;;;;;-140.72;100.00;52465.94;5014533;28;20486;-69
2022/04/17 08:44:51;;;;;;;2.63;1.20;;;;;;;-140.72;100.00;52494.34;4988540;28;20026;-71
2022/04/17 08:47:16;;;;;;;1.25;0.77;;;;;;;-140.72;100.00;52463.91;5053280;28;20114;-69
2022/04/17 08:49:42;;;;;;;1.60;0.70;;;;;;;-140.72;100.00;52423.31;5008061;28;20475;-69
2022/04/17 08:52:10;;;;;;;0.45;0.30;;;;;;;-140.72;100.00;52423.31;5022013;28;20098;-70
2022/04/17 08:54:37;;;;;;;1.20;1.00;;;;;;;-140.72;100.00;52437.53;5021904;28;20103;-69
2022/04/17 08:57:04;;;;;;;1.63;1.52;;;;;;;-140.72;100.00;52445.66;5007777;28;20030;-69
2022/04/17 08:59:29;;;;;;;2.20;1.25;;;;;;;-140.72;100.00;52350.28;4999563;28;20487;-71
2022/04/17 09:01:55;;;;;;;1.30;0.73;;;;;;;-140.72;100.00;52362.44;5002499;28;20109;-69
2022/04/17 09:04:22;;;;;;;2.22;0.75;;;;;;;-140.72;100.00;52307.66;5005342;28;20129;-70
2022/04/17 09:06:48;;;;;;;0.85;0.77;;;;;;;-140.72;100.00;52289.41;4988488;28;20081;-71
2022/04/17 09:09:13;;;;;;;1.77;0.73;;;;;;;-140.72;100.00;52281.28;4990382;28;20026;-69
2022/04/17 09:11:39;;;;;;;1.25;0.90;;;;;;;-140.72;100.00;52330.00;4991955;28;20110;-69
2022/04/17 09:14:05;;;;;;;1.20;0.57;;;;;;;-140.72;100.00;52275.19;4991857;28;20040;-71
2022/04/17 09:16:34;;;;;;;0.75;0.40;;;;;;;-140.72;100.00;52267.09;4992109;28;20058;-72
2022/04/17 09:19:14;;;;;;;1.67;0.98;;;;;;;-140.72;100.00;52297.53;4992274;28;20041;-68
2022/04/17 09:21:40;;;;;;;1.38;0.80;;;;;;;-140.72;100.00;52248.81;5007601;28;20030;-68
2022/04/17 09:24:19;;;;;;;1.25;0.80;;;;;;;-140.72;100.00;52224.47;5010618;28;20109;-69
2022/04/17 09:26:50;;;;;;;0.77;0.47;;;;;;;-140.72;100.00;52230.56;5010681;28;20038;-69
2022/04/17 09:29:25;;;;;;;2.15;0.90;;;;;;;-140.72;100.00;52187.97;5001456;28;20087;-69
2022/04/17 09:32:11;;;;;;;2.08;1.02;;;;;;;-140.72;100.00;52159.56;4994078;28;20030;-68
2022/04/17 09:34:55;;;;;;;1.27;0.80;;;;;;;-140.72;100.00;52163.59;4998783;28;20034;-69
2022/04/17 09:37:27;;;;;;;0.73;0.47;;;;;;;-140.72;100.00;52151.44;5007309;28;20073;-69
2022/04/17 09:40:04;;;;;;;1.25;0.73;;;;;;;-140.72;100.00;52157.53;5019347;28;20537;-71
2022/04/17 09:42:30;;;;;;;1.20;0.77;;;;;;;-140.72;100.00;52220.41;4995789;28;20069;-70
2022/04/17 09:44:55;;;;;;;1.33;0.82;;;;;;;-140.72;100.00;52224.47;4988867;28;20130;-70
2022/04/17 09:47:26;;;;;;;1.88;0.82;;;;;;;-140.72;100.00;52147.38;4989190;28;20031;-69
2022/04/17 09:50:08;;;;;;;2.40;0.82;;;;;;;-140.72;95.95;52123.03;4990540;28;20023;-70
2022/04/17 09:52:40;;;;;;;0.90;0.47;;;;;;;-140.72;94.50;52167.66;4994702;28;20039;-70
2022/04/17 09:55:06;;;;;;;1.55;0.65;;;;;;;-140.72;94.50;52127.09;5009793;28;20030;-71
2022/04/17 09:57:34;;;;;;;1.30;0.60;;;;;;;-140.72;81.28;52062.16;4999347;28;20060;-70
2022/04/17 10:00:19;;;;;;;1.27;0.80;;;;;;;-140.72;79.73;52082.44;5061120;28;20045;-70
2022/04/17 10:02:45;;;;;;;3.15;0.65;;;;;;;-140.72;82.23;52086.50;5075724;28;20043;-69
2022/04/17 10:05:13;;;;;;;1.42;0.73;;;;;;;-140.72;86.84;52147.38;5093100;28;20068;-69
2022/04/17 10:07:41;;;;;;;1.83;0.80;;;;;;;-140.72;79.73;52094.63;5093519;28;20043;-70
2022/04/17 10:10:08;;;;;;;1.67;0.60;;;;;;;-140.72;82.74;52025.63;5093481;28;20103;-69
2022/04/17 10:12:37;;;;;;;1.17;0.73;;;;;;;-140.72;76.31;52033.75;5092420;28;20074;-68
2022/04/17 10:15:06;;;;;;;1.10;0.70;;;;;;;-140.72;72.76;51997.22;5092808;28;20479;-73
2022/04/17 10:17:32;;;;;;;;;;;;;;;-140.72;70.06;52025.63;5094300;28;20028;-69
2022/04/17 10:20:03;;;;;;;1.00;0.73;;;;;;;-140.72;68.61;52017.53;5092906;28;19912;-69
2022/04/17 10:22:33;;;;;;;3.55;0.80;;;;;;;-140.72;70.23;51972.88;5093473;28;20052;-70
2022/04/17 10:25:02;;;;;;;1.17;0.52;;;;;;;-140.72;73.57;52005.34;5093522;28;20101;-70
2022/04/17 10:27:32;;;;;;;1.10;0.52;;;;;;;-140.72;67.57;51964.78;5093665;28;20035;-70
2022/04/17 10:30:04;;;;;;;0.93;0.47;;;;;;;-140.72;64.61;51956.66;5093814;28;20466;-69
2022/04/17 10:32:33;;;;;;;1.45;0.60;;;;;;;-140.72;62.50;51893.75;5093246;28;20375;-70
2022/04/17 10:34:59;;;;;;;1.20;0.70;;;;;;;-140.72;58.99;51924.19;5093386;28;20376;-70
2022/04/17 10:37:49;;;;;;;1.77;0.85;;;;;;;-140.72;59.47;51887.66;5093373;28;20054;-70
2022/04/17 10:40:15;;;;;;;1.75;0.63;;;;;;;-140.72;60.86;51948.53;5093398;28;20024;-67
2022/04/17 10:43:00;;;;;;;1.30;0.45;;;;;;;-140.72;63.10;51956.66;5093094;28;20111;-67
2022/04/17 10:45:26;;;;;;;1.17;0.60;;;;;;;-140.72;64.30;51940.41;5093222;28;20478;-71
2022/04/17 10:48:11;;;;;;;2.95;0.73;;;;;;;-140.72;53.26;51881.59;5093162;28;20543;-69
2022/04/17 10:50:49;;;;;;;0.93;0.47;;;;;;;-140.72;55.77;51863.31;5085583;28;20020;-70
2022/04/17 10:53:26;;;;;;;0.98;0.50;;;;;;;-140.72;57.83;51968.81;5093391;28;20032;-70
2022/04/17 10:56:05;;;;;;;1.08;0.60;;;;;;;-140.72;58.27;51934.34;5092815;28;20540;-70
2022/04/17 10:58:40;;;;;;;0.95;0.35;;;;;;;-140.72;48.39;51948.53;5079302;28;20053;-68
2022/04/17 11:01:06;;;;;;;0.98;0.43;;;;;;;-140.72;58.48;51895.78;5010512;28;20040;-70
2022/04/17 11:03:34;;;;;;;2.80;0.82;;;;;;;-140.72;53.34;51897.81;5009870;28;20030;-72
2022/04/17 11:06:32;;;;;;;2.03;0.98;;;;;;;-140.72;55.84;51875.50;5010192;28;20058;-69
2022/04/17 11:09:18;;;;;;;1.50;0.75;;;;;;;-140.72;53.38;51834.91;5009796;28;20030;-70
2022/04/17 11:11:45;;;;;;;2.35;0.98;;;;;;;-140.72;51.40;51774.06;5009978;28;20072;-69
2022/04/17 11:14:26;;;;;;;0.93;0.50;;;;;;;-140.72;49.87;51826.81;5009795;28;20044;-69
2022/04/17 11:16:53;;;;;;;1.58;0.85;;;;;;;-140.72;46.30;51814.63;5009875;28;20120;-69
2022/04/17 11:19:33;;;;;;;2.22;0.65;;;;;;;-140.72;42.08;51784.19;5009640;28;20113;-70
2022/04/17 11:22:02;;;;;;;1.10;0.68;;;;;;;-140.72;43.81;51786.22;5010013;28;20438;-71
2022/04/17 11:24:29;;;;;;;;;;;;;;;-140.72;44.00;51733.47;5010197;28;20033;-70
2022/04/17 11:26:54;;;;;;;0.93;0.45;;;;;;;-140.72;39.19;51721.31;5009717;28;19913;-69
2022/04/17 11:29:38;;;;;;;0.77;0.37;;;;;;;-140.72;40.22;51767.97;5009400;28;20429;-70